createdAt,value
2023-01-08T00:00:06.168Z,99482.88
2023-01-08T00:02:32.901Z,99478.41
2023-01-08T00:04:59.565Z,99484.84
2023-01-08T00:07:26.247Z,99486.84
2023-01-08T00:09:55.139Z,99486.84
2023-01-08T00:12:21.782Z,99485.19
2023-01-08T00:14:48.508Z,99478.75
2023-01-08T00:17:15.130Z,99477.94
2023-01-08T00:19:43.274Z,99473.50
2023-01-08T00:22:10.296Z,99479.47
2023-01-08T00:24:37.067Z,99471.38
2023-01-08T00:27:03.815Z,99458.47
2023-01-08T00:29:30.894Z,99457.69
2023-01-08T00:31:57.484Z,99462.84
2023-01-08T00:34:24.195Z,99451.09
2023-01-08T00:36:50.875Z,99451.81
2023-01-08T00:39:17.485Z,99455.81
2023-01-08T00:41:45.645Z,99465.78
2023-01-08T00:44:12.347Z,99456.88
2023-01-08T00:46:38.996Z,99457.56
2023-01-08T00:49:05.836Z,99455.47
2023-01-08T00:51:32.542Z,99453.00
2023-01-08T00:53:59.251Z,99447.28
2023-01-08T00:56:28.530Z,99450.44
2023-01-08T00:58:55.767Z,99434.28
2023-01-08T01:01:22.665Z,99441.41
2023-01-08T01:03:49.365Z,99447.75
2023-01-08T01:06:16.147Z,99445.28
2023-01-08T01:08:44.495Z,99449.63
2023-01-08T01:11:14.130Z,99447.53
2023-01-08T01:13:40.743Z,99439.78
2023-01-08T01:16:07.968Z,99444.13
2023-01-08T01:18:35.052Z,99436.38
2023-01-08T01:21:01.704Z,99433.09
2023-01-08T01:23:29.096Z,99429.81
2023-01-08T01:25:55.755Z,99423.25
2023-01-08T01:28:22.390Z,99425.63
2023-01-08T01:30:53.980Z,99426.31
2023-01-08T01:33:20.700Z,99427.50
2023-01-08T01:35:47.424Z,99420.56
2023-01-08T01:38:14.569Z,99425.69
2023-01-08T01:40:43.223Z,99421.59
2023-01-08T01:43:13.724Z,99423.94
2023-01-08T01:45:41.315Z,99425.44
2023-01-08T01:48:11.429Z,99410.13
2023-01-08T01:50:47.629Z,99410.81
2023-01-08T01:53:18.333Z,99417.94
2023-01-08T01:55:46.111Z,99422.25
2023-01-08T01:58:14.525Z,99418.50
2023-01-08T02:00:41.885Z,99413.59
2023-01-08T02:03:10.148Z,99420.75
2023-01-08T02:05:46.430Z,99420.59
2023-01-08T02:08:15.797Z,99418.16
2023-01-08T02:10:49.546Z,99424.44
2023-01-08T02:13:21.112Z,99425.16
2023-01-08T02:15:53.771Z,99421.06
2023-01-08T02:18:25.439Z,99420.91
2023-01-08T02:21:01.447Z,99426.06
2023-01-08T02:23:37.688Z,99421.94
2023-01-08T02:26:07.843Z,99423.81
2023-01-08T02:28:38.407Z,99435.75
2023-01-08T02:31:06.294Z,99436.44
2023-01-08T02:33:33.367Z,99438.75
2023-01-08T02:36:09.593Z,99427.41
2023-01-08T02:38:37.117Z,99439.34
2023-01-08T02:41:05.717Z,99447.25
2023-01-08T02:43:38.329Z,99451.59
2023-01-08T02:46:06.315Z,99455.06
2023-01-08T02:48:34.294Z,99457.41
2023-01-08T02:51:04.703Z,99430.03
2023-01-08T02:53:33.583Z,99432.34
2023-01-08T02:56:09.527Z,99424.94
2023-01-08T02:58:37.495Z,99437.81
2023-01-08T03:01:06.825Z,99419.69
2023-01-08T03:03:35.242Z,99419.53
2023-01-08T03:06:05.820Z,99427.47
2023-01-08T03:08:35.064Z,99414.63
2023-01-08T03:11:06.875Z,99407.00
2023-01-08T03:13:42.491Z,99413.31
2023-01-08T03:16:11.199Z,99398.03
2023-01-08T03:18:41.603Z,99401.16
2023-01-08T03:21:08.933Z,99404.78
2023-01-08T03:23:37.507Z,99405.13
2023-01-08T03:26:05.900Z,99395.41
2023-01-08T03:28:39.367Z,99391.47
2023-01-08T03:31:07.061Z,99391.47
2023-01-08T03:33:35.205Z,99392.63
2023-01-08T03:36:03.909Z,99404.16
2023-01-08T03:38:34.141Z,99392.94
2023-01-08T03:41:04.118Z,99410.09
2023-01-08T03:43:30.838Z,99408.81
2023-01-08T03:45:59.354Z,99408.00
2023-01-08T03:48:26.773Z,99391.50
2023-01-08T03:50:53.547Z,99394.19
2023-01-08T03:53:20.180Z,99398.63
2023-01-08T03:55:46.809Z,99390.56
2023-01-08T03:58:13.598Z,99395.69
2023-01-08T04:00:40.291Z,99386.78
2023-01-08T04:03:06.932Z,99393.91
2023-01-08T04:05:33.567Z,99391.00
2023-01-08T04:08:00.224Z,99394.13
2023-01-08T04:10:27.064Z,99391.66
2023-01-08T04:12:53.653Z,99389.69
2023-01-08T04:15:20.474Z,99389.22
2023-01-08T04:17:47.104Z,99415.59
2023-01-08T04:20:13.737Z,99447.06
2023-01-08T04:22:40.462Z,99431.44
2023-01-08T04:25:07.460Z,99419.75
2023-01-08T04:27:34.048Z,99425.69
2023-01-08T04:30:00.738Z,99418.78
2023-01-08T04:32:27.359Z,99412.50
2023-01-08T04:34:54.075Z,99420.59
2023-01-08T04:37:20.709Z,99414.84
2023-01-08T04:39:47.379Z,99413.84
2023-01-08T04:42:13.975Z,99406.56
2023-01-08T04:44:40.584Z,99398.28
2023-01-08T04:47:07.353Z,99401.59
2023-01-08T04:49:34.039Z,99394.81
2023-01-08T04:52:00.734Z,99391.00
2023-01-08T04:54:27.352Z,99377.16
2023-01-08T04:56:54.063Z,99377.44
2023-01-08T04:59:20.759Z,99387.97
2023-01-08T05:01:47.549Z,99394.97
2023-01-08T05:04:14.266Z,99393.63
2023-01-08T05:06:40.867Z,99388.16
2023-01-08T05:09:07.519Z,99376.25
2023-01-08T05:11:35.745Z,99376.88
2023-01-08T05:14:02.365Z,99374.97
2023-01-08T05:16:28.990Z,99367.03
2023-01-08T05:18:55.609Z,99365.94
2023-01-08T05:21:22.239Z,99350.72
2023-01-08T05:23:48.949Z,99353.81
2023-01-08T05:26:16.128Z,99347.19
2023-01-08T05:28:42.776Z,99341.00
2023-01-08T05:31:09.590Z,99340.47
2023-01-08T05:33:36.238Z,99334.28
2023-01-08T05:36:04.809Z,99323.69
2023-01-08T05:38:31.410Z,99313.91
2023-01-08T05:40:58.018Z,99317.28
2023-01-08T05:43:24.664Z,99308.31
2023-01-08T05:45:51.290Z,99309.78
2023-01-08T05:48:17.893Z,99310.34
2023-01-08T05:50:44.718Z,99302.91
2023-01-08T05:53:11.358Z,99300.69
2023-01-08T05:55:38.030Z,99299.28
2023-01-08T05:58:05.416Z,99310.63
2023-01-08T06:00:32.750Z,99312.88
2023-01-08T06:02:59.424Z,99316.63
2023-01-08T06:05:26.124Z,99319.19
2023-01-08T06:07:52.863Z,99327.41
2023-01-08T06:10:19.503Z,99325.03
2023-01-08T06:12:46.217Z,99324.00
2023-01-08T06:15:13.022Z,99319.69
2023-01-08T06:17:39.714Z,99320.63
2023-01-08T06:20:06.781Z,99324.69
2023-01-08T06:22:33.774Z,99322.38
2023-01-08T06:25:00.669Z,99320.00
2023-01-08T06:27:27.350Z,99311.25
2023-01-08T06:29:53.952Z,99317.31
2023-01-08T06:32:20.624Z,99321.78
2023-01-08T06:34:47.303Z,99321.09
2023-01-08T06:37:13.925Z,99303.03
2023-01-08T06:39:40.518Z,99303.53
2023-01-08T06:42:07.148Z,99306.00
2023-01-08T06:44:33.803Z,99302.38
2023-01-08T06:47:00.452Z,99293.22
2023-01-08T06:49:27.173Z,99301.31
2023-01-08T06:51:53.946Z,99304.13
2023-01-08T06:54:20.571Z,99295.34
2023-01-08T06:56:53.745Z,99290.56
2023-01-08T06:59:20.983Z,99293.03
2023-01-08T07:01:47.731Z,99283.78
2023-01-08T07:04:14.515Z,99291.38
2023-01-08T07:06:41.245Z,99293.03
2023-01-08T07:09:08.288Z,99287.41
2023-01-08T07:11:34.996Z,99288.56
2023-01-08T07:14:01.654Z,99287.75
2023-01-08T07:16:28.298Z,99297.31
2023-01-08T07:18:55.058Z,99289.38
2023-01-08T07:21:22.790Z,99296.50
2023-01-08T07:23:49.964Z,99293.72
2023-01-08T07:26:16.684Z,99293.22
2023-01-08T07:28:43.689Z,99292.75
2023-01-08T07:31:10.522Z,99297.09
2023-01-08T07:33:37.395Z,99287.41
2023-01-08T07:36:05.231Z,99277.31
2023-01-08T07:38:31.843Z,99278.00
2023-01-08T07:40:59.388Z,99275.91
2023-01-08T07:43:26.674Z,99278.63
2023-01-08T07:45:53.362Z,99273.72
2023-01-08T07:48:20.011Z,99280.13
2023-01-08T07:50:46.689Z,99260.94
2023-01-08T07:53:13.987Z,99266.66
2023-01-08T07:55:40.634Z,99267.84
2023-01-08T07:58:09.176Z,99264.69
2023-01-08T08:00:35.924Z,99263.53
2023-01-08T08:03:04.222Z,99259.19
2023-01-08T08:05:30.969Z,99266.09
2023-01-08T08:07:57.673Z,99250.50
2023-01-08T08:10:24.317Z,99248.19
2023-01-08T08:12:50.957Z,99248.28
2023-01-08T08:15:17.599Z,99254.38
2023-01-08T08:17:45.353Z,99255.69
2023-01-08T08:20:12.321Z,99258.16
2023-01-08T08:22:38.953Z,99243.72
2023-01-08T08:25:05.789Z,99239.41
2023-01-08T08:27:32.408Z,99237.06
2023-01-08T08:29:59.000Z,99233.06
2023-01-08T08:32:25.737Z,99226.28
2023-01-08T08:34:52.388Z,99239.19
2023-01-08T08:37:19.048Z,99232.34
2023-01-08T08:39:45.686Z,99228.38
2023-01-08T08:42:12.353Z,99221.59
2023-01-08T08:44:41.291Z,99220.06
2023-01-08T08:47:09.628Z,99220.88
2023-01-08T08:49:37.308Z,99219.72
2023-01-08T08:52:04.456Z,99210.94
2023-01-08T08:54:31.275Z,99212.09
2023-01-08T08:56:57.999Z,99215.72
2023-01-08T08:59:24.708Z,99215.38
2023-01-08T09:01:51.478Z,99205.75
2023-01-08T09:04:18.410Z,99202.13
2023-01-08T09:06:45.055Z,99199.31
2023-01-08T09:09:11.737Z,99202.94
2023-01-08T09:11:38.353Z,99202.94
2023-01-08T09:14:05.028Z,99202.59
2023-01-08T09:16:33.230Z,99186.09
2023-01-08T09:18:59.928Z,99181.69
2023-01-08T09:21:26.658Z,99173.59
2023-01-08T09:23:53.282Z,99163.53
2023-01-08T09:26:19.937Z,99161.44
2023-01-08T09:28:46.753Z,99162.13
2023-01-08T09:31:13.419Z,99153.25
2023-01-08T09:33:40.161Z,99152.78
2023-01-08T09:36:10.613Z,99151.53
2023-01-08T09:38:37.347Z,99152.69
2023-01-08T09:41:09.971Z,99146.97
2023-01-08T09:43:37.955Z,99143.22
2023-01-08T09:46:05.983Z,99152.34
2023-01-08T09:48:36.226Z,99153.06
2023-01-08T09:51:02.987Z,99147.34
2023-01-08T09:53:29.961Z,99143.25
2023-01-08T09:56:09.617Z,99139.97
2023-01-08T09:58:41.696Z,99141.97
2023-01-08T10:01:11.865Z,99138.25
2023-01-08T10:03:47.964Z,99133.34
2023-01-08T10:06:15.387Z,99132.88
2023-01-08T10:08:42.330Z,99127.97
2023-01-08T10:11:10.297Z,99135.91
2023-01-08T10:13:39.459Z,99139.06
2023-01-08T10:16:07.644Z,99132.19
2023-01-08T10:18:35.234Z,99136.53
2023-01-08T10:21:01.883Z,99123.66
2023-01-08T10:23:28.571Z,99124.84
2023-01-08T10:25:59.376Z,99121.59
2023-01-08T10:28:27.658Z,99121.09
2023-01-08T10:30:58.860Z,99108.63
2023-01-08T10:33:30.324Z,99112.59
2023-01-08T10:36:00.514Z,99109.31
2023-01-08T10:38:33.104Z,99106.88
2023-01-08T10:41:03.718Z,99101.94
2023-01-08T10:43:33.939Z,99100.31
2023-01-08T10:46:03.422Z,99097.06
2023-01-08T10:48:39.546Z,99090.97
2023-01-08T10:51:13.222Z,99068.41
2023-01-08T10:53:41.455Z,99070.78
2023-01-08T10:56:18.453Z,99069.47
2023-01-08T10:58:45.199Z,99061.78
2023-01-08T11:01:13.366Z,99058.88
2023-01-08T11:03:40.820Z,99067.97
2023-01-08T11:06:12.113Z,99058.28
2023-01-08T11:08:38.803Z,99052.69
2023-01-08T11:11:14.276Z,99050.56
2023-01-08T11:13:40.978Z,99039.34
2023-01-08T11:16:10.797Z,99044.47
2023-01-08T11:18:46.271Z,99028.47
2023-01-08T11:21:22.492Z,99022.75
2023-01-08T11:24:02.225Z,99008.25
2023-01-08T11:26:29.314Z,99009.00
2023-01-08T11:28:57.159Z,99012.72
2023-01-08T11:31:33.410Z,99012.16
2023-01-08T11:34:06.348Z,99001.97
2023-01-08T11:36:34.842Z,99002.69
2023-01-08T11:39:02.427Z,99001.28
2023-01-08T11:41:30.248Z,98983.88
2023-01-08T11:44:06.470Z,98985.25
2023-01-08T11:46:40.004Z,98979.38
2023-01-08T11:49:16.549Z,98976.34
2023-01-08T11:51:55.088Z,98966.91
2023-01-08T11:54:25.066Z,98949.81
2023-01-08T11:57:01.479Z,98963.59
2023-01-08T11:59:36.876Z,98958.19
2023-01-08T12:02:16.095Z,98954.78
2023-01-08T12:04:52.451Z,98943.19
2023-01-08T12:07:25.923Z,98948.53
2023-01-08T12:10:02.561Z,98935.78
2023-01-08T12:12:30.405Z,98927.47
2023-01-08T12:15:06.436Z,98926.75
2023-01-08T12:17:44.105Z,98921.59
2023-01-08T12:20:21.491Z,98924.50
2023-01-08T12:22:56.220Z,98943.41
2023-01-08T12:25:33.065Z,98947.50
2023-01-08T12:28:06.255Z,98949.16
2023-01-08T12:30:42.441Z,98915.09
2023-01-08T12:33:13.178Z,98920.00
2023-01-08T12:35:41.931Z,98901.59
2023-01-08T12:38:13.423Z,98914.09
2023-01-08T12:40:47.267Z,98899.59
2023-01-08T12:43:18.843Z,98896.91
2023-01-08T12:45:47.256Z,98887.84
2023-01-08T12:48:16.202Z,98883.50
2023-01-08T12:50:43.021Z,98877.16
2023-01-08T12:53:19.292Z,98863.56
2023-01-08T12:56:00.107Z,98860.88
2023-01-08T12:58:31.898Z,98851.72
2023-01-08T13:01:10.253Z,98867.00
2023-01-08T13:03:37.368Z,98848.63
2023-01-08T13:06:09.087Z,98858.31
2023-01-08T13:08:37.256Z,98829.88
2023-01-08T13:11:04.120Z,98836.44
2023-01-08T13:13:32.482Z,98822.84
2023-01-08T13:16:08.502Z,98822.47
2023-01-08T13:18:35.430Z,98819.75
2023-01-08T13:21:03.381Z,98818.56
2023-01-08T13:23:31.121Z,98829.44
2023-01-08T13:25:59.315Z,98817.84
2023-01-08T13:28:28.399Z,98812.66
2023-01-08T13:30:56.549Z,98803.06
2023-01-08T13:33:32.506Z,98789.47
2023-01-08T13:36:08.559Z,98778.25
2023-01-08T13:38:35.273Z,98773.41
2023-01-08T13:41:01.958Z,98779.03
2023-01-08T13:43:30.585Z,98772.25
2023-01-08T13:45:58.540Z,98772.25
2023-01-08T13:48:27.451Z,98769.06
2023-01-08T13:50:54.459Z,98756.66
2023-01-08T13:53:21.583Z,98754.69
2023-01-08T13:55:57.506Z,98748.66
2023-01-08T13:58:25.467Z,98753.13
2023-01-08T14:00:54.296Z,98747.13
2023-01-08T14:03:24.276Z,98742.75
2023-01-08T14:05:51.547Z,98743.59
2023-01-08T14:08:22.129Z,98740.41
2023-01-08T14:10:49.059Z,98736.03
2023-01-08T14:13:17.417Z,98739.66
2023-01-08T14:15:44.555Z,98743.72
2023-01-08T14:18:13.805Z,98752.97
2023-01-08T14:20:42.406Z,98749.44
2023-01-08T14:23:12.179Z,98735.00
2023-01-08T14:25:40.537Z,98759.59
2023-01-08T14:28:07.678Z,98747.94
2023-01-08T14:30:35.797Z,98760.06
2023-01-08T14:33:03.088Z,98759.72
2023-01-08T14:35:33.069Z,98762.59
2023-01-08T14:38:00.837Z,98765.88
2023-01-08T14:40:30.870Z,98753.88
2023-01-08T14:42:58.917Z,98757.97
2023-01-08T14:45:29.960Z,98758.03
2023-01-08T14:47:59.223Z,98758.09
2023-01-08T14:50:27.145Z,98754.53
2023-01-08T14:52:57.718Z,98751.81
2023-01-08T14:55:25.867Z,98749.91
2023-01-08T14:57:53.847Z,98751.16
2023-01-08T15:00:24.105Z,98754.44
2023-01-08T15:02:51.157Z,98752.84
2023-01-08T15:05:20.871Z,98739.25
2023-01-08T15:07:57.857Z,98740.88
2023-01-08T15:10:33.634Z,98742.47
2023-01-08T15:13:01.394Z,98732.88
2023-01-08T15:15:28.429Z,98727.25
2023-01-08T15:17:55.223Z,98714.81
2023-01-08T15:20:25.538Z,98714.81
2023-01-08T15:22:52.275Z,98712.00
2023-01-08T15:25:23.924Z,98708.84
2023-01-08T15:28:01.264Z,98700.75
2023-01-08T15:30:33.396Z,98705.19
2023-01-08T15:33:08.285Z,98702.38
2023-01-08T15:35:35.286Z,98720.88
2023-01-08T15:38:02.225Z,98716.44
2023-01-08T15:40:29.048Z,98715.63
2023-01-08T15:43:08.505Z,98713.63
2023-01-08T15:45:35.317Z,98713.63
2023-01-08T15:48:02.479Z,98712.81
2023-01-08T15:50:29.735Z,98714.47
2023-01-08T15:52:57.632Z,98720.06
2023-01-08T15:55:25.199Z,98711.25
2023-01-08T15:57:52.123Z,98700.00
2023-01-08T16:00:20.746Z,98700.00
2023-01-08T16:02:48.785Z,98700.00
2023-01-08T16:05:17.858Z,98707.25
2023-01-08T16:07:46.344Z,98705.25
2023-01-08T16:10:13.995Z,98713.34
2023-01-08T16:12:40.885Z,98700.88
2023-01-08T16:15:09.078Z,98692.53
2023-01-08T16:17:36.899Z,98706.19
2023-01-08T16:20:04.589Z,98693.31
2023-01-08T16:22:31.330Z,98699.75
2023-01-08T16:24:59.340Z,98697.34
2023-01-08T16:27:26.188Z,98699.31
2023-01-08T16:29:52.956Z,98691.19
2023-01-08T16:32:19.789Z,98686.75
2023-01-08T16:34:46.525Z,98684.31
2023-01-08T16:37:13.367Z,98673.44
2023-01-08T16:39:40.077Z,98669.38
2023-01-08T16:42:06.956Z,98683.38
2023-01-08T16:44:35.904Z,98671.25
2023-01-08T16:47:02.719Z,98673.25
2023-01-08T16:49:29.875Z,98670.34
2023-01-08T16:51:56.585Z,98663.84
2023-01-08T16:54:23.532Z,98659.34
2023-01-08T16:56:52.423Z,98658.06
2023-01-08T16:59:23.588Z,98674.88
2023-01-08T17:01:51.240Z,98679.25
2023-01-08T17:04:18.005Z,98679.16
2023-01-08T17:06:45.026Z,98695.59
2023-01-08T17:09:11.993Z,98699.59
2023-01-08T17:11:38.979Z,98691.50
2023-01-08T17:14:05.856Z,98714.38
2023-01-08T17:16:32.845Z,98715.56
2023-01-08T17:18:59.696Z,98711.94
2023-01-08T17:21:26.596Z,98711.50
2023-01-08T17:23:53.377Z,98722.75
2023-01-08T17:26:20.209Z,98718.75
2023-01-08T17:28:47.801Z,98731.63
2023-01-08T17:31:16.056Z,98736.06
2023-01-08T17:33:44.087Z,98738.06
2023-01-08T17:36:12.591Z,98746.03
2023-01-08T17:38:39.771Z,98762.88
2023-01-08T17:41:08.466Z,98764.91
2023-01-08T17:46:03.892Z,98782.50
2023-01-08T17:48:30.749Z,98783.66
2023-01-08T17:50:57.687Z,98776.78
2023-01-08T17:53:24.540Z,98777.53
2023-01-08T17:55:53.776Z,98777.09
2023-01-08T17:58:20.896Z,98789.50
2023-01-08T18:00:47.707Z,98796.31
2023-01-08T18:03:14.472Z,98794.22
2023-01-08T18:05:41.211Z,98790.16
2023-01-08T18:08:07.923Z,98791.34
2023-01-08T18:10:34.869Z,98793.69
2023-01-08T18:13:01.507Z,98786.81
2023-01-08T18:15:28.527Z,98786.38
2023-01-08T18:17:55.354Z,98780.31
2023-01-08T18:20:22.235Z,98785.84
2023-01-08T18:22:49.221Z,98777.31
2023-01-08T18:25:16.106Z,98780.53
2023-01-08T18:27:42.994Z,98779.25
2023-01-08T18:30:10.534Z,98777.19
2023-01-08T18:32:37.371Z,98785.13
2023-01-08T18:35:04.437Z,98783.06
2023-01-08T18:37:32.580Z,98783.78
2023-01-08T18:39:59.332Z,98788.13
2023-01-08T18:42:26.054Z,98781.25
2023-01-08T18:44:55.616Z,98783.59
2023-01-08T18:47:22.955Z,98779.88
2023-01-08T18:49:52.409Z,98787.06
2023-01-08T18:52:19.292Z,98792.22
2023-01-08T18:54:46.157Z,98787.34
2023-01-08T18:57:12.981Z,98780.81
2023-01-08T18:59:39.777Z,98780.75
2023-01-08T19:02:06.732Z,98789.50
2023-01-08T19:04:33.678Z,98778.19
2023-01-08T19:07:00.576Z,98784.16
2023-01-08T19:09:28.234Z,98775.66
2023-01-08T19:11:54.992Z,98775.19
2023-01-08T19:14:21.998Z,98778.75
2023-01-08T19:16:51.656Z,98775.47
2023-01-08T19:19:19.613Z,98767.78
2023-01-08T19:21:46.483Z,98769.34
2023-01-08T19:24:14.507Z,98763.63
2023-01-08T19:26:41.258Z,98759.22
2023-01-08T19:29:08.087Z,98755.59
2023-01-08T19:31:35.023Z,98762.38
2023-01-08T19:34:02.155Z,98759.22
2023-01-08T19:36:29.136Z,98762.44
2023-01-08T19:38:55.966Z,98761.28
2023-01-08T19:41:32.412Z,98766.97
2023-01-08T19:43:59.776Z,98762.63
2023-01-08T19:46:26.739Z,98756.28
2023-01-08T19:48:56.143Z,98753.94
2023-01-08T19:51:22.959Z,98752.41
2023-01-08T19:53:49.709Z,98752.84
2023-01-08T19:56:16.561Z,98752.13
2023-01-08T19:58:43.375Z,98753.38
2023-01-08T20:01:14.630Z,98745.41
2023-01-08T20:03:42.161Z,98743.88
2023-01-08T20:06:11.846Z,98749.56
2023-01-08T20:08:38.954Z,98744.41
2023-01-08T20:11:06.969Z,98739.69
2023-01-08T20:13:36.347Z,98740.16
2023-01-08T20:16:04.445Z,98734.97
2023-01-08T20:18:31.610Z,98732.22
2023-01-08T20:21:07.763Z,98743.56
2023-01-08T20:23:36.702Z,98740.38
2023-01-08T20:26:06.671Z,98745.28
2023-01-08T20:28:34.198Z,98737.31
2023-01-08T20:31:05.455Z,98740.22
2023-01-08T20:33:32.183Z,98739.50
2023-01-08T20:35:58.985Z,98733.50
2023-01-08T20:38:25.704Z,98732.78
2023-01-08T20:40:52.587Z,98743.25
2023-01-08T20:43:19.438Z,98739.72
2023-01-08T20:45:47.588Z,98725.31
2023-01-08T20:48:14.636Z,98730.19
2023-01-08T20:50:47.117Z,98732.28
2023-01-08T20:53:14.788Z,98727.09
2023-01-08T20:55:41.676Z,98720.75
2023-01-08T20:58:08.737Z,98717.56
2023-01-08T21:00:35.619Z,98724.44
2023-01-08T21:03:02.484Z,98724.50
2023-01-08T21:05:30.523Z,98717.72
2023-01-08T21:07:57.276Z,98713.34
2023-01-08T21:10:24.094Z,98719.03
2023-01-08T21:12:51.147Z,98714.69
2023-01-08T21:15:18.027Z,98713.50
2023-01-08T21:17:44.911Z,98716.75
2023-01-08T21:20:12.351Z,98713.22
2023-01-08T21:22:39.151Z,98712.81
2023-01-08T21:25:06.499Z,98714.91
2023-01-08T21:27:33.244Z,98709.72
2023-01-08T21:30:00.015Z,98705.72
2023-01-08T21:32:26.776Z,98703.72
2023-01-08T21:34:53.695Z,98699.75
2023-01-08T21:37:20.566Z,98691.38
2023-01-08T21:39:48.254Z,98688.16
2023-01-08T21:42:25.056Z,98681.38
2023-01-08T21:45:10.644Z,98680.19
2023-01-08T21:47:37.527Z,98675.03
2023-01-08T21:50:04.406Z,98666.59
2023-01-08T21:52:40.398Z,98661.75
2023-01-08T21:55:09.887Z,98653.31
2023-01-08T21:57:38.384Z,98659.75
2023-01-08T22:00:06.167Z,98650.50
2023-01-08T22:02:32.924Z,98638.47
2023-01-08T22:04:59.760Z,98644.47
2023-01-08T22:07:26.566Z,98636.03
2023-01-08T22:09:53.699Z,98634.84
2023-01-08T22:12:21.044Z,98621.63
2023-01-08T22:14:47.927Z,98628.84
2023-01-08T22:17:14.968Z,98619.22
2023-01-08T22:19:41.691Z,98625.28
2023-01-08T22:22:10.716Z,98614.06
2023-01-08T22:24:37.885Z,98609.66
2023-01-08T22:27:04.689Z,98607.66
2023-01-08T22:29:31.636Z,98611.75
2023-01-08T22:31:58.519Z,98609.38
2023-01-08T22:34:25.998Z,98609.03
2023-01-08T22:36:53.555Z,98609.84
2023-01-08T22:39:20.397Z,98612.25
2023-01-08T22:41:47.295Z,98605.09
2023-01-08T22:44:14.652Z,98599.47
2023-01-08T22:46:41.727Z,98596.25
2023-01-08T22:49:10.687Z,98596.25
2023-01-08T22:51:37.630Z,98584.19
2023-01-08T22:54:04.591Z,98577.78
2023-01-08T22:56:31.315Z,98587.00
2023-01-08T22:58:58.165Z,98581.38
2023-01-08T23:01:26.059Z,98578.56
2023-01-08T23:03:56.159Z,98587.81
2023-01-08T23:06:23.780Z,98579.00
2023-01-08T23:08:50.870Z,98581.47
2023-01-08T23:11:18.185Z,98578.66
2023-01-08T23:13:45.185Z,98576.25
2023-01-08T23:16:13.719Z,98576.25
2023-01-08T23:18:41.050Z,98572.72
2023-01-08T23:21:09.248Z,98581.56
2023-01-08T23:23:36.240Z,98585.19
2023-01-08T23:26:05.097Z,98588.81
2023-01-08T23:28:32.262Z,98596.06
2023-01-08T23:30:59.192Z,98605.34
2023-01-08T23:33:26.130Z,98601.69
2023-01-08T23:35:53.004Z,98604.50
2023-01-08T23:38:19.986Z,98607.31
2023-01-08T23:40:47.183Z,98602.88
2023-01-08T23:43:15.052Z,98608.88
2023-01-08T23:45:41.910Z,98602.06
2023-01-08T23:48:08.635Z,98607.69
2023-01-08T23:50:35.589Z,98603.69
2023-01-08T23:53:02.337Z,98607.31
2023-01-08T23:55:29.115Z,98611.75
2023-01-08T23:57:56.404Z,98606.13
